Time;durP1;ratioP1;P1;durP2;ratioP2;P2;SDS_P1;SDS_P2;PMS_P1;PMS_P2;Temp;Humidity;BMP_temperature;BMP_pressure;BME280_temperature;BME280_humidity;BME280_pressure;Samples;Min_cycle;Max_cycle;Signal;HPM_P1;HPM_P2
2023/09/13 00:00:10;;;;;;;7.88;3.88;;;17.80;99.90;;;;;;4936440;29;20036;-83
2023/09/13 00:02:36;;;;;;;5.75;3.55;;;17.80;99.90;;;;;;4938719;29;20032;-84
2023/09/13 00:05:02;;;;;;;9.70;3.35;;;17.80;99.90;;;;;;4937640;29;20114;-84
2023/09/13 00:07:28;;;;;;;5.45;3.80;;;17.70;99.90;;;;;;4938816;29;20034;-85
2023/09/13 00:09:53;;;;;;;6.43;3.60;;;17.70;99.90;;;;;;4935999;29;20040;-84
2023/09/13 00:12:19;;;;;;;5.30;2.83;;;17.70;99.90;;;;;;4936489;29;20537;-85
2023/09/13 00:14:46;;;;;;;6.30;3.70;;;17.70;99.90;;;;;;4937844;29;20023;-84
2023/09/13 00:17:12;;;;;;;6.53;3.30;;;17.60;99.90;;;;;;4937651;29;20023;-84
2023/09/13 00:19:37;;;;;;;8.18;3.80;;;17.60;99.90;;;;;;4937235;29;20043;-84
2023/09/13 00:22:03;;;;;;;6.63;3.55;;;17.50;99.90;;;;;;4927833;29;20027;-83
2023/09/13 00:24:29;;;;;;;5.45;3.53;;;17.50;99.90;;;;;;4941426;29;20023;-84
2023/09/13 00:26:54;;;;;;;4.38;3.15;;;17.40;99.90;;;;;;4939818;29;20024;-84
2023/09/13 00:29:20;;;;;;;5.93;3.40;;;17.30;99.90;;;;;;4939742;29;20219;-84
2023/09/13 00:31:45;;;;;;;4.88;3.38;;;17.30;99.90;;;;;;4940285;29;20019;-84
2023/09/13 00:34:11;;;;;;;9.88;3.80;;;17.20;99.90;;;;;;4939920;29;20034;-83
2023/09/13 00:36:36;;;;;;;4.35;2.90;;;17.20;99.90;;;;;;4941253;29;20051;-84
2023/09/13 00:39:05;;;;;;;6.65;3.70;;;17.20;99.90;;;;;;4944901;29;20466;-85
2023/09/13 00:41:34;;;;;;;4.97;3.40;;;17.10;99.90;;;;;;4944495;28;20028;-84
2023/09/13 00:44:02;;;;;;;5.82;3.38;;;17.10;99.90;;;;;;4938725;29;20027;-84
2023/09/13 00:46:28;;;;;;;6.65;3.67;;;17.10;99.90;;;;;;4938298;29;20027;-84
2023/09/13 00:48:54;;;;;;;5.32;3.30;;;17.10;99.90;;;;;;4938540;29;20035;-84
2023/09/13 00:51:20;;;;;;;6.55;3.28;;;17.10;99.90;;;;;;4939671;29;20057;-84
2023/09/13 00:53:47;;;;;;;7.18;3.28;;;17.10;99.90;;;;;;4938766;29;20035;-83
2023/09/13 00:56:13;;;;;;;7.25;3.70;;;17.10;99.90;;;;;;4936979;29;20038;-84
2023/09/13 00:58:40;;;;;;;4.70;3.13;;;17.10;99.90;;;;;;4940510;29;20115;-84
2023/09/13 01:01:06;;;;;;;6.28;3.75;;;17.10;99.90;;;;;;4938622;29;21152;-84
2023/09/13 01:03:32;;;;;;;5.55;3.40;;;17.10;99.90;;;;;;4936724;29;20421;-84
2023/09/13 01:05:59;;;;;;;4.28;3.22;;;17.00;99.90;;;;;;4937098;29;20035;-84
2023/09/13 01:08:25;;;;;;;4.97;3.42;;;17.00;99.90;;;;;;4938197;29;20122;-84
2023/09/13 01:10:51;;;;;;;6.25;3.20;;;17.00;99.90;;;;;;4935592;29;21047;-84
2023/09/13 01:13:16;;;;;;;4.50;3.53;;;17.00;99.90;;;;;;4937775;29;20042;-84
2023/09/13 01:15:57;;;;;;;8.32;3.65;;;17.00;99.90;;;;;;4936245;29;20040;-84
2023/09/13 01:18:35;;;;;;;6.57;3.38;;;17.00;99.90;;;;;;4936615;29;20120;-84
2023/09/13 01:21:17;;;;;;;6.60;3.42;;;17.00;99.90;;;;;;4940060;29;20035;-84
2023/09/13 01:24:08;;;;;;;4.93;3.38;;;17.00;99.90;;;;;;4939385;29;20066;-84
2023/09/13 01:26:39;;;;;;;6.90;3.47;;;17.00;99.90;;;;;;4933868;29;20576;-85
2023/09/13 01:29:08;;;;;;;5.95;3.17;;;16.90;99.90;;;;;;4937753;29;20034;-84
2023/09/13 01:31:37;;;;;;;5.40;3.60;;;16.90;99.90;;;;;;4937468;29;20028;-84
2023/09/13 01:34:04;;;;;;;4.63;3.70;;;16.90;99.90;;;;;;4937455;29;20032;-84
2023/09/13 01:36:30;;;;;;;6.85;3.45;;;16.80;99.90;;;;;;4937221;29;20039;-84
2023/09/13 01:38:56;;;;;;;8.80;3.85;;;16.80;99.90;;;;;;4937583;29;20039;-84
2023/09/13 01:41:37;;;;;;;6.68;3.70;;;16.80;99.90;;;;;;4935009;29;20051;-82
2023/09/13 01:44:03;;;;;;;6.18;3.47;;;16.80;99.90;;;;;;4945984;29;20032;-82
2023/09/13 01:46:35;;;;;;;5.25;3.30;;;16.80;99.90;;;;;;4941225;29;20020;-82
2023/09/13 01:49:04;;;;;;;8.50;3.38;;;16.70;99.90;;;;;;4942440;29;20027;-82
2023/09/13 01:51:31;;;;;;;6.18;3.35;;;16.70;99.90;;;;;;4942098;29;20043;-82
2023/09/13 01:53:56;;;;;;;7.10;3.78;;;16.60;99.90;;;;;;4943992;29;20026;-84
2023/09/13 01:56:22;;;;;;;7.15;3.28;;;16.60;99.90;;;;;;4942406;29;20111;-84
2023/09/13 01:58:49;;;;;;;6.32;3.78;;;16.60;99.90;;;;;;4946959;29;20041;-84
2023/09/13 02:01:16;;;;;;;6.03;3.15;;;16.60;99.90;;;;;;4945658;29;20024;-84
2023/09/13 02:03:42;;;;;;;7.30;3.67;;;16.60;99.90;;;;;;4950774;29;20036;-84
2023/09/13 02:06:08;;;;;;;8.57;3.42;;;16.60;99.90;;;;;;4957874;28;20042;-83
2023/09/13 02:08:34;;;;;;;5.97;3.50;;;16.60;99.90;;;;;;4965057;28;20369;-83
2023/09/13 02:10:59;;;;;;;7.47;3.85;;;16.60;99.90;;;;;;4960318;28;20115;-84
2023/09/13 02:13:25;;;;;;;6.20;3.60;;;16.60;99.90;;;;;;4948869;29;20046;-83
2023/09/13 02:15:50;;;;;;;5.57;3.20;;;16.60;99.90;;;;;;4941125;29;20028;-84
2023/09/13 02:18:16;;;;;;;5.97;3.25;;;16.60;99.90;;;;;;4941459;29;20039;-84
2023/09/13 02:20:42;;;;;;;7.80;3.95;;;16.60;99.90;;;;;;4941738;29;20028;-83
2023/09/13 02:23:07;;;;;;;7.53;3.10;;;16.60;99.90;;;;;;4943212;29;20028;-83
2023/09/13 02:25:37;;;;;;;5.18;3.05;;;16.60;99.90;;;;;;4941782;29;20042;-84
2023/09/13 02:28:03;;;;;;;6.45;3.42;;;16.60;99.90;;;;;;4943711;29;20043;-84
2023/09/13 02:30:31;;;;;;;3.92;3.05;;;16.50;99.90;;;;;;4941107;29;20031;-85
2023/09/13 02:32:56;;;;;;;4.20;2.85;;;16.50;99.90;;;;;;4943416;29;20035;-83
2023/09/13 02:35:22;;;;;;;6.93;3.05;;;16.50;99.90;;;;;;4924688;29;20056;-84
2023/09/13 02:37:48;;;;;;;5.10;3.13;;;16.60;99.90;;;;;;4942842;29;20869;-84
2023/09/13 02:40:15;;;;;;;6.72;2.97;;;16.60;99.90;;;;;;4940068;29;20129;-84
2023/09/13 02:42:40;;;;;;;4.72;2.92;;;16.60;99.90;;;;;;4944349;29;20055;-83
2023/09/13 02:45:07;;;;;;;4.60;3.10;;;16.70;99.90;;;;;;4944472;29;20031;-84
2023/09/13 02:47:32;;;;;;;5.57;3.40;;;16.70;99.90;;;;;;4944282;29;21453;-84
2023/09/13 02:49:58;;;;;;;9.10;3.20;;;16.70;99.90;;;;;;4941079;29;20051;-84
2023/09/13 02:52:30;;;;;;;5.97;3.05;;;16.70;99.90;;;;;;4943911;29;20023;-84
2023/09/13 02:54:56;;;;;;;6.38;3.30;;;16.70;99.90;;;;;;4942579;29;20035;-83
2023/09/13 02:57:22;;;;;;;4.25;2.92;;;16.70;99.90;;;;;;4943165;29;20062;-84
2023/09/13 02:59:47;;;;;;;5.38;3.40;;;16.70;99.90;;;;;;4942560;29;20036;-84
2023/09/13 03:02:13;;;;;;;6.40;3.40;;;16.80;99.90;;;;;;4942384;29;20032;-84
2023/09/13 03:04:40;;;;;;;3.50;2.95;;;16.80;99.90;;;;;;4939523;29;20414;-84
2023/09/13 03:07:05;;;;;;;5.80;3.22;;;16.90;99.90;;;;;;4941501;29;20110;-84
2023/09/13 03:09:31;;;;;;;4.55;3.40;;;16.90;99.90;;;;;;4939751;29;20087;-84
2023/09/13 03:11:56;;;;;;;5.65;3.15;;;16.90;99.90;;;;;;4940241;29;20073;-84
2023/09/13 03:14:22;;;;;;;4.05;3.28;;;16.90;99.90;;;;;;4942029;29;20035;-83
2023/09/13 03:16:48;;;;;;;5.15;3.22;;;17.00;99.90;;;;;;4942155;29;20031;-84
2023/09/13 03:19:13;;;;;;;10.05;3.85;;;17.00;99.90;;;;;;4942880;29;20062;-84
2023/09/13 03:21:39;;;;;;;7.40;4.30;;;17.00;99.90;;;;;;4944518;29;20015;-84
2023/09/13 03:24:06;;;;;;;4.68;3.45;;;17.00;99.90;;;;;;4944746;29;20075;-84
2023/09/13 03:26:32;;;;;;;6.15;3.35;;;17.10;99.90;;;;;;4942066;29;20091;-84
2023/09/13 03:28:57;;;;;;;5.07;3.40;;;17.10;99.90;;;;;;4942032;29;21158;-84
2023/09/13 03:31:26;;;;;;;5.72;3.72;;;17.10;99.90;;;;;;4941653;29;20118;-84
2023/09/13 03:33:54;;;;;;;6.68;3.70;;;17.10;99.90;;;;;;4940794;29;20080;-84
2023/09/13 03:36:20;;;;;;;6.20;3.33;;;17.20;99.90;;;;;;4941104;29;20170;-84
2023/09/13 03:38:46;;;;;;;6.57;3.22;;;17.20;99.90;;;;;;4940074;29;20086;-84
2023/09/13 03:41:20;;;;;;;9.25;3.20;;;17.20;99.90;;;;;;4938899;29;20034;-84
2023/09/13 03:43:45;;;;;;;6.47;4.00;;;17.20;99.90;;;;;;4939692;29;20050;-83
2023/09/13 03:46:11;;;;;;;6.43;3.40;;;17.20;99.90;;;;;;4939195;29;20062;-84
2023/09/13 03:48:38;;;;;;;6.35;3.83;;;17.20;99.90;;;;;;4939330;29;20024;-82
2023/09/13 03:51:04;;;;;;;6.07;3.65;;;17.20;99.90;;;;;;4939100;29;20054;-82
2023/09/13 03:53:30;;;;;;;5.63;3.60;;;17.20;99.90;;;;;;4938577;29;20099;-83
2023/09/13 03:55:56;;;;;;;6.15;3.55;;;17.20;99.90;;;;;;4938776;29;20047;-84
2023/09/13 03:58:23;;;;;;;9.45;4.10;;;17.20;99.90;;;;;;4939064;29;20024;-84
2023/09/13 04:00:49;;;;;;;5.95;3.67;;;17.20;99.90;;;;;;4939083;29;20566;-85
2023/09/13 04:03:19;;;;;;;7.30;3.70;;;17.20;99.90;;;;;;4939505;29;20046;-84
2023/09/13 04:05:44;;;;;;;10.32;4.28;;;17.20;99.90;;;;;;4939549;29;20057;-84
2023/09/13 04:08:10;;;;;;;8.63;4.05;;;17.20;99.90;;;;;;4940085;29;20035;-82
2023/09/13 04:10:36;;;;;;;6.47;4.22;;;17.20;99.90;;;;;;4938542;29;20019;-82
2023/09/13 04:13:01;;;;;;;6.20;4.43;;;17.20;99.90;;;;;;4939234;29;20087;-82
2023/09/13 04:15:27;;;;;;;6.78;4.47;;;17.20;99.90;;;;;;4938334;29;20032;-82
2023/09/13 04:17:52;;;;;;;5.97;4.20;;;17.30;99.90;;;;;;4939657;29;20826;-82
2023/09/13 04:20:19;;;;;;;6.03;4.18;;;17.30;99.90;;;;;;4937475;29;20387;-83
2023/09/13 04:22:45;;;;;;;9.52;4.30;;;17.30;99.90;;;;;;4938899;29;20114;-83
2023/09/13 04:25:11;;;;;;;6.65;4.60;;;17.30;99.90;;;;;;4938665;29;20858;-83
2023/09/13 04:27:36;;;;;;;8.18;4.30;;;17.30;99.90;;;;;;4939646;29;20042;-83
2023/09/13 04:30:03;;;;;;;6.45;4.40;;;17.30;99.90;;;;;;4938659;29;20502;-83
2023/09/13 04:32:29;;;;;;;4.57;3.88;;;17.30;99.90;;;;;;4939879;28;20031;-82
2023/09/13 04:34:55;;;;;;;7.72;4.57;;;17.40;99.90;;;;;;4937766;29;20553;-83
2023/09/13 04:37:22;;;;;;;10.30;4.50;;;17.40;99.90;;;;;;4938396;29;20042;-83
2023/09/13 04:39:48;;;;;;;7.95;4.32;;;17.40;99.90;;;;;;4938282;29;20118;-83
2023/09/13 04:42:14;;;;;;;8.65;4.68;;;17.30;99.90;;;;;;4939805;28;20035;-84
2023/09/13 04:44:40;;;;;;;5.93;4.13;;;17.40;99.90;;;;;;4940109;29;20122;-84
2023/09/13 04:47:05;;;;;;;6.18;4.00;;;17.30;99.90;;;;;;4939474;29;20521;-84
2023/09/13 04:49:31;;;;;;;8.02;4.55;;;17.30;99.90;;;;;;4938307;29;20581;-83
2023/09/13 04:51:57;;;;;;;8.10;4.70;;;17.30;99.90;;;;;;4939204;29;20035;-84
2023/09/13 04:54:23;;;;;;;4.72;3.70;;;17.30;99.90;;;;;;4940490;29;20114;-83
2023/09/13 04:56:50;;;;;;;8.82;5.22;;;17.30;99.90;;;;;;4945561;29;20098;-84
2023/09/13 04:59:16;;;;;;;7.72;4.65;;;17.30;99.90;;;;;;4948247;29;20040;-82
2023/09/13 05:01:41;;;;;;;11.90;6.05;;;17.30;99.90;;;;;;4961963;28;20023;-82
2023/09/13 05:04:07;;;;;;;8.02;5.57;;;17.30;99.90;;;;;;4961470;28;20038;-83
2023/09/13 05:06:33;;;;;;;13.68;5.63;;;17.30;99.90;;;;;;4943610;29;20082;-84
2023/09/13 05:08:58;;;;;;;8.20;5.00;;;17.30;99.90;;;;;;4938572;29;20038;-85
2023/09/13 05:11:24;;;;;;;8.75;4.97;;;17.40;99.90;;;;;;4934162;29;20171;-84
2023/09/13 05:13:50;;;;;;;12.32;5.78;;;17.50;99.90;;;;;;4934440;29;20027;-83
2023/09/13 05:16:20;;;;;;;8.98;4.97;;;17.60;99.90;;;;;;4934576;29;20670;-82
2023/09/13 05:18:46;;;;;;;10.15;5.97;;;17.60;99.90;;;;;;4935184;29;20089;-83
2023/09/13 05:21:12;;;;;;;8.07;5.30;;;17.70;99.90;;;;;;4935707;29;20034;-82
2023/09/13 05:23:37;;;;;;;10.68;5.65;;;17.80;99.90;;;;;;4937073;29;20035;-83
2023/09/13 05:26:03;;;;;;;7.70;5.47;;;17.90;99.90;;;;;;4938917;29;20046;-82
2023/09/13 05:28:33;;;;;;;8.32;5.55;;;18.00;99.90;;;;;;4922193;29;20016;-85
2023/09/13 05:31:00;;;;;;;12.52;6.20;;;18.00;99.90;;;;;;4942162;29;20676;-82
2023/09/13 05:33:26;;;;;;;11.48;6.03;;;18.10;99.90;;;;;;4939126;29;20023;-83
2023/09/13 05:35:52;;;;;;;8.65;6.40;;;18.10;99.90;;;;;;4939808;29;20111;-82
2023/09/13 05:38:18;;;;;;;8.82;5.45;;;18.10;99.90;;;;;;4944902;29;20054;-82
2023/09/13 05:40:43;;;;;;;14.18;6.90;;;18.10;99.90;;;;;;4942980;29;20024;-82
2023/09/13 05:43:09;;;;;;;15.00;6.40;;;18.10;99.90;;;;;;4942037;29;20159;-82
2023/09/13 05:45:34;;;;;;;11.75;7.18;;;18.10;99.90;;;;;;4940073;29;20036;-84
2023/09/13 05:48:00;;;;;;;14.40;6.45;;;18.10;99.90;;;;;;4939882;29;20097;-84
2023/09/13 05:50:26;;;;;;;11.18;7.20;;;18.00;99.90;;;;;;4939882;29;20122;-83
2023/09/13 05:52:52;;;;;;;15.00;6.88;;;18.00;99.90;;;;;;4942637;29;20027;-82
2023/09/13 05:55:17;;;;;;;10.70;7.30;;;18.00;99.90;;;;;;4948082;29;20182;-82
2023/09/13 05:57:43;;;;;;;15.00;8.45;;;17.90;99.90;;;;;;4925835;29;20031;-82
2023/09/13 06:00:09;;;;;;;9.38;8.30;;;17.90;99.90;;;;;;4942102;29;20043;-81
2023/09/13 06:02:37;;;;;;;11.23;7.57;;;17.80;99.90;;;;;;4942848;29;20138;-82
2023/09/13 06:05:03;;;;;;;12.60;8.25;;;17.80;99.90;;;;;;4943915;29;20039;-82
2023/09/13 06:07:29;;;;;;;15.40;8.02;;;17.70;99.90;;;;;;4944290;29;20020;-82
2023/09/13 06:09:54;;;;;;;11.88;8.02;;;17.70;99.90;;;;;;4942832;29;20102;-82
2023/09/13 06:12:20;;;;;;;10.25;7.30;;;17.60;99.90;;;;;;4940904;29;20023;-82
2023/09/13 06:14:46;;;;;;;15.45;8.50;;;17.60;99.90;;;;;;4942564;29;20035;-81
2023/09/13 06:17:13;;;;;;;12.18;8.68;;;17.60;99.90;;;;;;4926712;29;20055;-81
2023/09/13 06:19:39;;;;;;;11.02;8.45;;;17.60;99.90;;;;;;4942350;29;20016;-81
2023/09/13 06:22:05;;;;;;;9.80;8.20;;;17.60;99.90;;;;;;4942898;29;20098;-82
2023/09/13 06:24:30;;;;;;;11.63;8.55;;;17.60;99.90;;;;;;4941915;29;20034;-82
2023/09/13 06:26:56;;;;;;;11.00;8.20;;;17.60;99.90;;;;;;4941315;29;20038;-82
2023/09/13 06:29:21;;;;;;;12.00;8.07;;;17.60;99.90;;;;;;4941264;29;20055;-81
2023/09/13 06:31:50;;;;;;;11.30;8.27;;;17.60;99.90;;;;;;4942055;29;20039;-82
2023/09/13 06:34:16;;;;;;;10.00;8.13;;;17.60;99.90;;;;;;4942405;29;20038;-82
2023/09/13 06:36:42;;;;;;;13.23;8.40;;;17.70;99.90;;;;;;4940861;29;20024;-82
2023/09/13 06:39:07;;;;;;;12.75;8.20;;;17.70;99.90;;;;;;4940115;28;20042;-81
2023/09/13 06:41:33;;;;;;;11.00;8.57;;;17.70;99.90;;;;;;4939251;29;20510;-82
2023/09/13 06:43:58;;;;;;;13.15;8.38;;;17.70;99.90;;;;;;4939859;29;20087;-82
2023/09/13 06:46:24;;;;;;;10.80;8.30;;;17.70;99.90;;;;;;4938872;29;20398;-84
2023/09/13 06:48:49;;;;;;;12.68;8.50;;;17.80;99.90;;;;;;4937505;29;20062;-82
2023/09/13 06:51:15;;;;;;;11.43;8.10;;;17.80;99.90;;;;;;4939118;29;20079;-81
2023/09/13 06:53:41;;;;;;;10.77;8.38;;;17.80;99.90;;;;;;4940088;29;20553;-81
2023/09/13 06:56:08;;;;;;;13.00;8.45;;;17.90;99.90;;;;;;4939261;29;20023;-81
2023/09/13 06:58:34;;;;;;;11.73;8.48;;;17.90;99.90;;;;;;4938862;29;20878;-81
2023/09/13 07:00:59;;;;;;;11.27;8.95;;;18.00;99.90;;;;;;4940047;29;20103;-81
2023/09/13 07:03:25;;;;;;;16.13;8.90;;;18.10;99.90;;;;;;4941206;29;20087;-81
2023/09/13 07:05:50;;;;;;;12.02;8.70;;;18.20;99.90;;;;;;4939856;29;20095;-81
2023/09/13 07:08:16;;;;;;;10.23;8.10;;;18.20;99.90;;;;;;4940885;29;20031;-81
2023/09/13 07:10:42;;;;;;;9.98;8.43;;;18.20;99.90;;;;;;4939967;29;20166;-81
2023/09/13 07:13:08;;;;;;;14.68;8.88;;;18.30;99.90;;;;;;4940944;29;20030;-81
2023/09/13 07:15:34;;;;;;;13.40;8.85;;;18.30;99.90;;;;;;4941050;29;20023;-81
2023/09/13 07:17:59;;;;;;;11.52;8.95;;;18.40;99.90;;;;;;4941675;29;20027;-81
2023/09/13 07:20:25;;;;;;;13.43;8.40;;;18.50;99.90;;;;;;4939295;29;20051;-81
2023/09/13 07:22:51;;;;;;;10.00;6.90;;;18.60;99.90;;;;;;4941576;29;20036;-81
2023/09/13 07:25:16;;;;;;;10.63;7.75;;;18.60;99.90;;;;;;4941967;29;20039;-81
2023/09/13 07:27:42;;;;;;;10.60;7.20;;;18.70;99.90;;;;;;4943103;29;20027;-81
2023/09/13 07:30:10;;;;;;;13.40;6.70;;;18.70;99.90;;;;;;4941486;29;20177;-81
2023/09/13 07:32:37;;;;;;;12.80;6.97;;;18.80;99.90;;;;;;4942931;29;20118;-81
2023/09/13 07:35:03;;;;;;;12.23;7.07;;;18.80;99.90;;;;;;4942953;29;20050;-81
2023/09/13 07:37:30;;;;;;;9.40;7.72;;;18.80;99.90;;;;;;4942040;29;20042;-81
2023/09/13 07:39:57;;;;;;;10.35;7.15;;;18.80;99.90;;;;;;4944191;29;20982;-81
2023/09/13 07:42:23;;;;;;;10.27;7.10;;;18.90;99.90;;;;;;4944469;29;20027;-81
2023/09/13 07:44:48;;;;;;;9.23;6.65;;;18.90;99.90;;;;;;4943429;29;20055;-80
2023/09/13 07:47:14;;;;;;;11.25;7.25;;;18.90;99.90;;;;;;4944101;29;20028;-80
2023/09/13 07:49:39;;;;;;;13.02;7.43;;;18.90;99.90;;;;;;4949873;29;20094;-81
2023/09/13 07:52:05;;;;;;;11.00;7.60;;;18.90;99.90;;;;;;4948622;28;20035;-81
2023/09/13 07:54:31;;;;;;;12.10;6.72;;;19.00;99.90;;;;;;4949363;29;20031;-81
2023/09/13 07:56:57;;;;;;;9.60;6.68;;;19.10;99.90;;;;;;4956994;28;20110;-71
2023/09/13 07:59:22;;;;;;;9.13;6.05;;;19.20;99.90;;;;;;4938351;29;20040;-81
2023/09/13 08:01:48;;;;;;;6.68;5.28;;;19.30;99.90;;;;;;4951908;28;20039;-81
2023/09/13 08:04:14;;;;;;;11.88;6.30;;;19.40;99.90;;;;;;4937353;29;20110;-81
2023/09/13 08:06:42;;;;;;;10.15;5.47;;;19.60;99.90;;;;;;4937375;29;20515;-81
2023/09/13 08:09:08;;;;;;;9.07;5.85;;;19.70;99.90;;;;;;4921086;29;20402;-81
2023/09/13 08:11:34;;;;;;;10.70;5.28;;;19.90;99.90;;;;;;4938793;29;20442;-81
2023/09/13 08:13:59;;;;;;;11.07;5.90;;;20.00;99.90;;;;;;4937975;29;20028;-81
2023/09/13 08:16:26;;;;;;;8.30;5.80;;;20.10;99.90;;;;;;4937820;29;20118;-81
2023/09/13 08:18:51;;;;;;;9.65;5.30;;;20.30;99.90;;;;;;4938327;29;20038;-82
2023/09/13 08:21:17;;;;;;;7.05;5.10;;;20.40;99.90;;;;;;4938036;29;21035;-81
2023/09/13 08:23:42;;;;;;;7.90;5.28;;;20.50;99.90;;;;;;4939660;29;20398;-81
2023/09/13 08:26:08;;;;;;;7.20;5.05;;;20.60;99.90;;;;;;4940241;29;20030;-81
2023/09/13 08:28:34;;;;;;;8.27;4.93;;;20.70;99.90;;;;;;4939172;29;20027;-81
2023/09/13 08:31:01;;;;;;;7.90;5.45;;;20.80;99.90;;;;;;4936912;29;20058;-82
2023/09/13 08:33:26;;;;;;;6.22;5.30;;;20.90;99.90;;;;;;4938324;29;20042;-81
2023/09/13 08:35:52;;;;;;;9.35;5.10;;;20.90;99.90;;;;;;4936424;29;20028;-81
2023/09/13 08:38:17;;;;;;;7.53;5.20;;;20.90;99.90;;;;;;4936893;29;20034;-81
2023/09/13 08:40:45;;;;;;;6.20;5.18;;;21.00;99.90;;;;;;4935061;29;20027;-82
2023/09/13 08:43:12;;;;;;;8.10;4.93;;;21.00;99.90;;;;;;4936822;29;20035;-81
2023/09/13 08:45:38;;;;;;;7.82;4.88;;;21.00;99.90;;;;;;4935715;29;20038;-81
2023/09/13 08:48:07;;;;;;;8.18;5.28;;;21.00;99.90;;;;;;4937691;29;20113;-81
2023/09/13 08:50:34;;;;;;;6.25;4.47;;;21.00;99.90;;;;;;4935325;29;20037;-81
2023/09/13 08:53:02;;;;;;;9.10;4.93;;;21.00;99.90;;;;;;4937550;29;20072;-81
2023/09/13 08:55:29;;;;;;;7.68;5.03;;;21.00;99.90;;;;;;4935834;29;20035;-81
2023/09/13 08:57:59;;;;;;;5.28;4.60;;;21.00;99.90;;;;;;4935928;29;20024;-81
2023/09/13 09:00:28;;;;;;;6.82;4.72;;;21.10;99.90;;;;;;4935023;29;20122;-82
2023/09/13 09:02:55;;;;;;;8.70;5.05;;;21.10;99.90;;;;;;4935492;28;20498;-82
2023/09/13 09:05:24;;;;;;;5.82;4.82;;;21.10;99.90;;;;;;4934771;29;20027;-81
2023/09/13 09:07:50;;;;;;;6.03;4.68;;;21.20;99.90;;;;;;4935393;29;20031;-81
2023/09/13 09:10:17;;;;;;;10.05;5.03;;;21.20;99.90;;;;;;4941270;29;20038;-81
2023/09/13 09:12:47;;;;;;;6.93;4.63;;;21.30;99.90;;;;;;4940926;29;20047;-81
2023/09/13 09:15:14;;;;;;;8.15;5.45;;;21.50;99.90;;;;;;4939921;29;20631;-82
2023/09/13 09:17:41;;;;;;;6.68;5.47;;;21.60;99.90;;;;;;4938767;29;20031;-82
2023/09/13 09:20:07;;;;;;;8.32;5.70;;;21.80;99.90;;;;;;4938512;29;20125;-82
2023/09/13 09:22:34;;;;;;;6.90;5.40;;;22.00;99.90;;;;;;4938727;29;20102;-81
2023/09/13 09:25:00;;;;;;;8.07;5.38;;;22.30;99.90;;;;;;4939891;29;20028;-81
2023/09/13 09:27:25;;;;;;;7.97;5.55;;;22.60;99.90;;;;;;4922283;29;20439;-82
2023/09/13 09:30:03;;;;;;;7.90;5.22;;;22.90;99.90;;;;;;4938172;29;20047;-82
2023/09/13 09:32:29;;;;;;;8.07;4.93;;;23.00;99.90;;;;;;4939551;29;20391;-82
2023/09/13 09:34:59;;;;;;;7.10;5.20;;;23.10;99.90;;;;;;4938210;29;20043;-82
2023/09/13 09:37:32;;;;;;;9.43;5.35;;;23.20;99.90;;;;;;4938742;29;20039;-82
2023/09/13 09:39:58;;;;;;;6.80;5.00;;;23.40;99.90;;;;;;4937636;29;21520;-82
2023/09/13 09:42:26;;;;;;;8.32;5.25;;;23.40;99.90;;;;;;4939521;29;20023;-82
2023/09/13 09:44:55;;;;;;;6.93;5.68;;;23.70;99.90;;;;;;4937926;29;20657;-82
2023/09/13 09:47:21;;;;;;;8.90;5.43;;;23.80;99.90;;;;;;4920797;29;20183;-82
2023/09/13 09:49:47;;;;;;;6.63;5.25;;;23.70;99.90;;;;;;4937013;29;20036;-82
2023/09/13 09:52:17;;;;;;;8.63;5.15;;;23.70;99.90;;;;;;4937594;29;20673;-82
2023/09/13 09:54:49;;;;;;;8.95;5.50;;;23.60;99.90;;;;;;4938122;29;20118;-82
2023/09/13 09:57:22;;;;;;;11.93;5.45;;;23.50;99.90;;;;;;4939142;29;20107;-82
2023/09/13 09:59:49;;;;;;;8.77;5.38;;;23.50;99.90;;;;;;4936520;29;20035;-82
2023/09/13 10:02:15;;;;;;;9.80;5.60;;;23.70;99.90;;;;;;4920480;29;20047;-83
2023/09/13 10:04:45;;;;;;;7.57;5.20;;;23.70;99.90;;;;;;4934262;29;20130;-82
2023/09/13 10:07:10;;;;;;;8.85;5.18;;;23.80;99.90;;;;;;4936487;29;21325;-82
2023/09/13 10:09:40;;;;;;;9.30;5.53;;;23.90;99.90;;;;;;4936624;29;20035;-83
2023/09/13 10:12:07;;;;;;;7.32;5.10;;;23.80;99.90;;;;;;4935942;29;20023;-82
2023/09/13 10:14:33;;;;;;;6.28;4.75;;;23.60;99.90;;;;;;4938675;29;20538;-82
2023/09/13 10:17:02;;;;;;;11.18;5.57;;;23.50;99.90;;;;;;4940460;29;20687;-82
2023/09/13 10:19:29;;;;;;;8.68;5.55;;;23.40;99.90;;;;;;4941015;29;20027;-82
2023/09/13 10:21:57;;;;;;;8.55;5.40;;;23.30;99.90;;;;;;4939722;29;20027;-82
2023/09/13 10:24:27;;;;;;;7.93;5.18;;;23.30;99.90;;;;;;4940293;29;20058;-82
2023/09/13 10:26:53;;;;;;;8.27;6.03;;;23.30;99.90;;;;;;4939109;29;20426;-82
2023/09/13 10:29:31;;;;;;;8.45;5.70;;;23.40;99.90;;;;;;4936211;29;20030;-82
2023/09/13 10:32:02;;;;;;;7.53;5.85;;;23.50;99.90;;;;;;4940774;29;20035;-82
2023/09/13 10:34:31;;;;;;;8.27;5.53;;;23.40;99.90;;;;;;4938547;29;20082;-82
2023/09/13 10:37:23;;;;;;;9.25;5.75;;;23.20;99.90;;;;;;4940612;29;20679;-82
2023/09/13 10:39:56;;;;;;;16.40;6.47;;;23.10;99.90;;;;;;4940338;29;20023;-82
2023/09/13 10:42:23;;;;;;;8.20;5.73;;;22.90;99.90;;;;;;4941060;29;20036;-82
2023/09/13 10:44:49;;;;;;;7.90;5.78;;;22.80;99.90;;;;;;4943721;29;20102;-82
2023/09/13 10:47:15;;;;;;;7.50;5.38;;;22.70;99.90;;;;;;4943536;29;20046;-82
2023/09/13 10:49:42;;;;;;;7.50;5.70;;;22.60;99.90;;;;;;4945391;29;20032;-82
2023/09/13 10:52:08;;;;;;;9.80;6.20;;;22.50;99.90;;;;;;4956376;28;20026;-82
2023/09/13 10:54:36;;;;;;;10.93;5.50;;;22.40;99.90;;;;;;4963855;28;20023;-81
2023/09/13 10:57:02;;;;;;;10.93;6.10;;;22.30;99.90;;;;;;4956986;28;20036;-82
2023/09/13 10:59:30;;;;;;;9.00;6.20;;;22.30;99.90;;;;;;4940806;29;20055;-83
2023/09/13 11:01:57;;;;;;;7.50;6.57;;;22.20;99.90;;;;;;4936652;29;20056;-82
2023/09/13 11:04:24;;;;;;;7.68;6.25;;;22.10;99.90;;;;;;4936927;28;20065;-84
2023/09/13 11:06:53;;;;;;;8.68;6.22;;;22.10;99.90;;;;;;4937381;29;20034;-84
2023/09/13 11:09:31;;;;;;;7.78;6.30;;;22.00;99.90;;;;;;4936387;29;20027;-83
2023/09/13 11:11:58;;;;;;;11.32;6.38;;;21.90;99.90;;;;;;4938913;29;20039;-83
2023/09/13 11:14:26;;;;;;;10.48;6.40;;;21.80;99.90;;;;;;4939212;29;21212;-82
2023/09/13 11:16:52;;;;;;;10.63;8.10;;;21.70;99.90;;;;;;4940264;29;20040;-83
2023/09/13 11:19:18;;;;;;;13.25;8.07;;;21.60;99.90;;;;;;4939211;29;20130;-83
2023/09/13 11:21:52;;;;;;;15.00;8.85;;;21.50;99.90;;;;;;4939838;28;20028;-83
2023/09/13 11:24:38;;;;;;;12.77;8.48;;;21.30;99.90;;;;;;4940360;29;20035;-83
2023/09/13 11:27:11;;;;;;;15.20;9.60;;;21.20;99.90;;;;;;4941160;28;20039;-83
2023/09/13 11:29:44;;;;;;;13.90;9.23;;;21.00;99.90;;;;;;4938612;29;20495;-82
2023/09/13 11:32:18;;;;;;;13.95;8.50;;;20.90;99.90;;;;;;4940875;29;20024;-82
2023/09/13 11:34:45;;;;;;;14.63;8.38;;;20.80;99.90;;;;;;4939661;29;20019;-82
2023/09/13 11:37:11;;;;;;;13.68;8.48;;;20.80;99.90;;;;;;4936724;29;20122;-82
2023/09/13 11:39:38;;;;;;;12.20;8.70;;;20.70;99.90;;;;;;4936422;29;20403;-82
2023/09/13 11:42:07;;;;;;;15.25;8.98;;;20.60;99.90;;;;;;4937042;29;21398;-82
2023/09/13 11:44:33;;;;;;;12.20;8.30;;;20.60;99.90;;;;;;4937290;29;20058;-82
2023/09/13 11:47:00;;;;;;;15.20;9.50;;;20.60;99.90;;;;;;4938108;29;20031;-81
2023/09/13 11:49:26;;;;;;;13.43;9.18;;;20.60;99.90;;;;;;4936623;29;20191;-81
2023/09/13 11:51:57;;;;;;;11.07;9.48;;;20.60;99.90;;;;;;4938192;29;20028;-82
2023/09/13 11:54:24;;;;;;;12.88;9.65;;;20.60;99.90;;;;;;4936764;29;20460;-82
2023/09/13 11:56:54;;;;;;;14.68;10.40;;;20.60;99.90;;;;;;4937311;29;20031;-82
2023/09/13 11:59:24;;;;;;;12.48;9.52;;;20.60;99.90;;;;;;4936280;29;20779;-81
2023/09/13 12:01:51;;;;;;;14.73;9.60;;;20.60;99.90;;;;;;4938179;29;20020;-82
2023/09/13 12:04:19;;;;;;;14.15;9.80;;;20.60;99.90;;;;;;4937505;29;20522;-82
2023/09/13 12:06:47;;;;;;;12.60;10.48;;;20.60;99.90;;;;;;4936520;29;20028;-83
2023/09/13 12:09:16;;;;;;;14.30;10.40;;;20.60;99.90;;;;;;4936030;29;20117;-82
2023/09/13 12:11:42;;;;;;;15.13;10.43;;;20.50;99.90;;;;;;4934810;29;20027;-82
2023/09/13 12:14:09;;;;;;;14.73;10.98;;;20.50;99.90;;;;;;4935509;29;20020;-82
2023/09/13 12:16:37;;;;;;;12.25;10.48;;;20.50;99.90;;;;;;4935799;29;20023;-83
2023/09/13 12:19:03;;;;;;;16.63;11.73;;;20.40;99.90;;;;;;4935948;29;20041;-83
2023/09/13 12:21:29;;;;;;;17.10;12.18;;;20.30;99.90;;;;;;4935712;29;20063;-83
2023/09/13 12:23:55;;;;;;;21.15;12.38;;;20.20;99.90;;;;;;4935170;29;20135;-83
2023/09/13 12:26:23;;;;;;;17.20;12.60;;;20.10;99.90;;;;;;4936054;29;21377;-83
2023/09/13 12:28:49;;;;;;;18.48;12.43;;;19.90;99.90;;;;;;4936158;29;20034;-83
2023/09/13 12:31:16;;;;;;;18.27;11.63;;;19.90;99.90;;;;;;4935725;29;20056;-73
2023/09/13 12:33:51;;;;;;;16.90;11.15;;;19.90;99.90;;;;;;4934416;29;20070;-82
2023/09/13 12:36:18;;;;;;;17.40;12.60;;;19.80;99.90;;;;;;4935890;29;20026;-81
2023/09/13 12:38:44;;;;;;;18.85;11.80;;;19.80;99.90;;;;;;4933026;28;20046;-82
2023/09/13 12:41:09;;;;;;;17.25;12.43;;;19.70;99.90;;;;;;4935015;29;20024;-82